Time;durP1;ratioP1;P1;durP2;ratioP2;P2;SDS_P1;SDS_P2;PMS_P1;PMS_P2;Temp;Humidity;BMP_temperature;BMP_pressure;BME280_temperature;BME280_humidity;BME280_pressure;Samples;Min_cycle;Max_cycle;Signal;HPM_P1;HPM_P2
2023/01/15 00:02:42;;;;;;;14.63;7.38;;;;;;;;;;8426437;28;20151;-86
2023/01/15 00:06:45;;;;;;;12.13;5.75;;;;;;;;;;8395797;28;20045;-85
2023/01/15 00:10:49;;;;;;;8.95;5.47;;;;;;;;;;8412141;28;20040;-85
2023/01/15 00:14:51;;;;;;;9.10;5.30;;;;;;;;;;8405455;28;20476;-86
2023/01/15 00:18:57;;;;;;;12.27;6.13;;;;;;;;;;8412622;28;20048;-86
2023/01/15 00:22:59;;;;;;;15.93;6.28;;;;;;;;;;8419469;28;20476;-86
2023/01/15 00:31:25;;;;;;;12.10;6.18;;;;;;;;;;8395306;28;20091;-85
2023/01/15 00:35:27;;;;;;;11.65;4.28;;;;;;;;;;8401827;28;20449;-86
2023/01/15 00:39:31;;;;;;;15.52;6.15;;;;;;;;;;8402023;28;20480;-86
2023/01/15 00:43:35;;;;;;;13.10;5.13;;;;;;;;;;8422243;28;20583;-85
2023/01/15 00:47:38;;;;;;;12.55;5.97;;;;;;;;;;8395186;28;20048;-85
2023/01/15 00:51:41;;;;;;;11.63;5.55;;;;;;;;;;8395026;28;20222;-86
2023/01/15 00:55:44;;;;;;;11.80;5.05;;;;;;;;;;8421981;28;20040;-85
2023/01/15 00:59:49;;;;;;;9.43;4.15;;;;;;;;;;8411590;28;20047;-85
2023/01/15 01:03:52;;;;;;;10.10;4.72;;;;;;;;;;8401222;28;20044;-83
2023/01/15 01:07:55;;;;;;;10.05;5.38;;;;;;;;;;8407496;28;20080;-85
2023/01/15 01:11:57;;;;;;;6.03;3.90;;;;;;;;;;8408311;28;20484;-85
2023/01/15 01:16:02;;;;;;;9.23;4.35;;;;;;;;;;8400984;28;20044;-86
2023/01/15 01:20:06;;;;;;;9.32;4.55;;;;;;;;;;8413837;28;20576;-86
2023/01/15 01:24:11;;;;;;;9.23;4.53;;;;;;;;;;8407122;28;20068;-85
2023/01/15 01:28:14;;;;;;;9.48;4.07;;;;;;;;;;8406691;28;20121;-86
2023/01/15 01:32:21;;;;;;;7.20;3.90;;;;;;;;;;8420423;28;20105;-86
2023/01/15 01:36:28;;;;;;;7.60;4.22;;;;;;;;;;8433640;28;20101;-84
2023/01/15 01:40:31;;;;;;;7.60;3.92;;;;;;;;;;8425593;28;20044;-86
2023/01/15 01:45:04;;;;;;;11.13;4.50;;;;;;;;;;8400259;28;20072;-86
2023/01/15 01:49:12;;;;;;;9.65;4.78;;;;;;;;;;8412154;28;20138;-85
2023/01/15 01:53:20;;;;;;;13.00;5.10;;;;;;;;;;8413614;28;20044;-85
2023/01/15 01:57:24;;;;;;;9.43;4.93;;;;;;;;;;8400208;28;20044;-85
2023/01/15 02:01:27;;;;;;;12.30;5.38;;;;;;;;;;8399401;28;20044;-85
2023/01/15 02:05:34;;;;;;;5.20;3.65;;;;;;;;;;8412696;28;20487;-86
2023/01/15 02:09:36;;;;;;;10.75;3.90;;;;;;;;;;8431749;28;20040;-86
2023/01/15 02:13:42;;;;;;;7.72;4.70;;;;;;;;;;8405410;28;20052;-85
2023/01/15 02:17:52;;;;;;;8.20;4.20;;;;;;;;;;8424702;28;20044;-86
2023/01/15 02:22:04;;;;;;;9.02;4.63;;;;;;;;;;8398834;28;20113;-85
2023/01/15 02:26:52;;;;;;;8.32;3.90;;;;;;;;;;8398932;28;20040;-85
2023/01/15 02:31:01;;;;;;;7.05;3.90;;;;;;;;;;8384218;28;20179;-86
2023/01/15 02:35:10;;;;;;;7.28;3.85;;;;;;;;;;8418478;28;20143;-86
2023/01/15 02:39:17;;;;;;;9.38;4.00;;;;;;;;;;8409977;28;20100;-85
2023/01/15 02:43:23;;;;;;;9.00;3.70;;;;;;;;;;8397978;28;20135;-86
2023/01/15 02:47:30;;;;;;;6.28;3.08;;;;;;;;;;8424870;28;20135;-83
2023/01/15 02:51:39;;;;;;;6.90;4.15;;;;;;;;;;8411324;28;20072;-85
2023/01/15 02:55:47;;;;;;;6.55;3.20;;;;;;;;;;8428105;28;20411;-86
2023/01/15 02:59:52;;;;;;;7.10;3.60;;;;;;;;;;8407224;28;20119;-85
2023/01/15 03:04:04;;;;;;;7.53;3.83;;;;;;;;;;8397753;28;20097;-86
2023/01/15 03:08:09;;;;;;;5.93;3.33;;;;;;;;;;8405292;28;20062;-85
2023/01/15 03:12:17;;;;;;;11.13;3.75;;;;;;;;;;8430440;28;20066;-85
2023/01/15 03:16:37;;;;;;;6.65;3.17;;;;;;;;;;8431031;28;20399;-85
2023/01/15 03:20:47;;;;;;;9.88;4.13;;;;;;;;;;8430078;28;20088;-85
2023/01/15 03:24:54;;;;;;;4.95;3.10;;;;;;;;;;8399875;28;20101;-85
2023/01/15 03:28:57;;;;;;;8.65;3.45;;;;;;;;;;8416050;28;20068;-85
2023/01/15 03:33:00;;;;;;;4.63;3.10;;;;;;;;;;8403765;28;20468;-85
2023/01/15 03:37:05;;;;;;;7.72;3.63;;;;;;;;;;8396469;28;20132;-85
2023/01/15 03:41:16;;;;;;;6.38;2.95;;;;;;;;;;8396802;28;20604;-86
2023/01/15 03:45:32;;;;;;;5.90;3.15;;;;;;;;;;8396183;28;20053;-85
2023/01/15 03:49:42;;;;;;;7.18;2.40;;;;;;;;;;8425914;28;20046;-85
2023/01/15 03:53:50;;;;;;;5.85;3.10;;;;;;;;;;8429589;28;20071;-86
2023/01/15 03:57:58;;;;;;;6.47;3.05;;;;;;;;;;8397650;28;20114;-86
2023/01/15 04:02:04;;;;;;;4.13;2.50;;;;;;;;;;8421542;28;20440;-85
2023/01/15 04:06:07;;;;;;;5.57;2.97;;;;;;;;;;8397222;28;20381;-85
2023/01/15 04:10:12;;;;;;;3.88;2.58;;;;;;;;;;8420446;28;20155;-86
2023/01/15 04:14:15;;;;;;;4.70;2.55;;;;;;;;;;8383586;28;20156;-84
2023/01/15 04:18:18;;;;;;;4.22;2.65;;;;;;;;;;8414818;28;20044;-85
2023/01/15 04:22:21;;;;;;;3.28;2.08;;;;;;;;;;8397694;28;20158;-85
2023/01/15 04:26:26;;;;;;;4.80;2.80;;;;;;;;;;8408893;28;20040;-85
2023/01/15 04:30:29;;;;;;;5.05;2.67;;;;;;;;;;8395220;28;20048;-86
2023/01/15 04:34:33;;;;;;;5.18;2.80;;;;;;;;;;8423665;28;20127;-86
2023/01/15 04:38:38;;;;;;;7.43;2.45;;;;;;;;;;8430189;28;20040;-86
2023/01/15 04:47:02;;;;;;;4.30;2.42;;;;;;;;;;8383858;28;20056;-87
2023/01/15 04:51:05;;;;;;;7.07;3.17;;;;;;;;;;8402359;28;20545;-86
2023/01/15 04:55:09;;;;;;;2.88;2.22;;;;;;;;;;8402062;28;20079;-85
2023/01/15 04:59:14;;;;;;;4.60;2.65;;;;;;;;;;8401524;28;20052;-86
2023/01/15 05:03:17;;;;;;;5.47;2.60;;;;;;;;;;8423522;28;20042;-86
2023/01/15 05:07:21;;;;;;;3.45;2.03;;;;;;;;;;8419574;28;20101;-85
2023/01/15 05:11:24;;;;;;;3.95;2.45;;;;;;;;;;8410094;28;20054;-85
2023/01/15 05:15:28;;;;;;;5.82;2.83;;;;;;;;;;8420997;28;20155;-86
2023/01/15 05:19:31;;;;;;;2.85;2.20;;;;;;;;;;8412045;28;20435;-86
2023/01/15 05:23:34;;;;;;;3.22;2.17;;;;;;;;;;8414250;28;20506;-86
2023/01/15 05:27:36;;;;;;;5.32;2.78;;;;;;;;;;8409691;28;20127;-85
2023/01/15 05:31:43;;;;;;;6.38;2.20;;;;;;;;;;8417887;28;20067;-86
2023/01/15 05:35:46;;;;;;;4.47;2.13;;;;;;;;;;8400296;28;20132;-86
2023/01/15 05:39:49;;;;;;;4.15;2.33;;;;;;;;;;8417012;28;20044;-86
2023/01/15 05:43:52;;;;;;;9.57;2.40;;;;;;;;;;8433316;28;20047;-85
2023/01/15 05:47:56;;;;;;;3.17;2.10;;;;;;;;;;8416705;28;20041;-86
2023/01/15 05:52:01;;;;;;;4.88;2.60;;;;;;;;;;8400401;28;20052;-85
2023/01/15 05:56:05;;;;;;;5.70;2.50;;;;;;;;;;8429780;28;20552;-86
2023/01/15 06:00:09;;;;;;;3.03;1.65;;;;;;;;;;8433101;28;20040;-84
2023/01/15 06:04:14;;;;;;;6.05;2.90;;;;;;;;;;8419228;28;20048;-86
2023/01/15 06:08:17;;;;;;;5.18;2.60;;;;;;;;;;8423594;28;20252;-86
2023/01/15 06:12:20;;;;;;;6.28;2.45;;;;;;;;;;8399194;28;20041;-85
2023/01/15 06:16:23;;;;;;;2.95;1.80;;;;;;;;;;8399144;28;20051;-86
2023/01/15 06:20:27;;;;;;;6.72;2.58;;;;;;;;;;8398810;28;20052;-86
2023/01/15 06:24:30;;;;;;;4.28;2.13;;;;;;;;;;8412384;28;20116;-86
2023/01/15 06:28:33;;;;;;;5.35;2.80;;;;;;;;;;8416752;28;20044;-86
2023/01/15 06:32:36;;;;;;;3.78;2.58;;;;;;;;;;8422724;28;20048;-84
2023/01/15 06:36:40;;;;;;;6.45;2.88;;;;;;;;;;8414705;28;20066;-86
2023/01/15 06:40:43;;;;;;;4.07;2.50;;;;;;;;;;8413734;28;20127;-86
2023/01/15 06:49:05;;;;;;;4.10;2.20;;;;;;;;;;8423805;28;20048;-86
2023/01/15 06:53:09;;;;;;;5.15;2.15;;;;;;;;;;8417598;28;20048;-84
2023/01/15 06:57:12;;;;;;;3.92;2.47;;;;;;;;;;8418229;28;20129;-86
2023/01/15 07:01:16;;;;;;;4.93;2.10;;;;;;;;;;8397617;28;20040;-86
2023/01/15 07:05:18;;;;;;;5.97;2.25;;;;;;;;;;8409234;28;20487;-87
2023/01/15 07:09:23;;;;;;;5.55;2.55;;;;;;;;;;8403505;28;20114;-86
2023/01/15 07:13:26;;;;;;;3.67;2.30;;;;;;;;;;8401943;28;20538;-85
2023/01/15 07:17:29;;;;;;;3.30;2.20;;;;;;;;;;8396615;28;20139;-86
2023/01/15 07:21:32;;;;;;;5.38;2.53;;;;;;;;;;8406802;28;20123;-84
2023/01/15 07:25:37;;;;;;;5.55;2.55;;;;;;;;;;8424049;28;20044;-85
2023/01/15 07:29:40;;;;;;;4.25;2.35;;;;;;;;;;8409611;28;20487;-86
2023/01/15 07:33:43;;;;;;;3.88;2.13;;;;;;;;;;8402886;28;20054;-85
2023/01/15 07:37:50;;;;;;;4.13;2.55;;;;;;;;;;8403550;28;20101;-85
2023/01/15 07:50:36;;;;;;;5.82;2.45;;;;;;;;;;8404831;28;20048;-86
2023/01/15 07:54:39;;;;;;;5.38;2.70;;;;;;;;;;8395722;28;20082;-82
2023/01/15 07:58:48;;;;;;;7.57;1.90;;;;;;;;;;8395925;28;20049;-86
2023/01/15 08:02:53;;;;;;;5.18;2.47;;;;;;;;;;8403605;28;20127;-83
2023/01/15 08:06:56;;;;;;;5.20;2.67;;;;;;;;;;8396842;28;20102;-86
2023/01/15 08:15:23;;;;;;;6.20;2.58;;;;;;;;;;8406697;28;20081;-86
2023/01/15 08:19:28;;;;;;;4.72;2.70;;;;;;;;;;8406048;28;20048;-86
2023/01/15 08:23:31;;;;;;;5.32;2.55;;;;;;;;;;8424663;28;20040;-86
2023/01/15 08:27:34;;;;;;;6.07;2.85;;;;;;;;;;8418094;28;20192;-87
2023/01/15 08:31:40;;;;;;;5.72;3.22;;;;;;;;;;8422706;28;20556;-87
2023/01/15 08:35:43;;;;;;;6.70;2.88;;;;;;;;;;8404013;28;20480;-86
2023/01/15 08:39:46;;;;;;;4.72;2.72;;;;;;;;;;8412332;28;20477;-86
2023/01/15 08:43:48;;;;;;;4.35;2.22;;;;;;;;;;8406081;28;20484;-85
2023/01/15 08:47:55;;;;;;;5.80;2.45;;;;;;;;;;8411134;28;20051;-87
2023/01/15 08:51:58;;;;;;;3.38;2.13;;;;;;;;;;8420474;28;20072;-86
2023/01/15 08:56:01;;;;;;;5.75;2.80;;;;;;;;;;8418803;28;20051;-86
2023/01/15 09:00:04;;;;;;;9.30;4.72;;;;;;;;;;8418422;28;20044;-87
2023/01/15 09:04:13;;;;;;;14.02;6.00;;;;;;;;;;8420006;28;20635;-87
2023/01/15 09:08:16;;;;;;;5.95;3.67;;;;;;;;;;8400502;28;20058;-86
2023/01/15 09:12:21;;;;;;;3.97;2.53;;;;;;;;;;8410594;28;20056;-86
2023/01/15 09:16:26;;;;;;;6.18;3.80;;;;;;;;;;8409635;28;20048;-87
2023/01/15 09:20:31;;;;;;;5.15;2.97;;;;;;;;;;8425470;28;20059;-86
2023/01/15 09:24:34;;;;;;;5.38;2.97;;;;;;;;;;8424350;28;20045;-86
2023/01/15 09:28:37;;;;;;;4.93;2.47;;;;;;;;;;8408949;28;20044;-87
2023/01/15 09:32:40;;;;;;;6.47;3.63;;;;;;;;;;8415512;28;20550;-87
2023/01/15 09:36:45;;;;;;;7.32;3.10;;;;;;;;;;8417363;28;20522;-87
2023/01/15 09:40:51;;;;;;;5.75;2.92;;;;;;;;;;8426194;28;20046;-87
2023/01/15 09:45:20;;;;;;;5.32;2.55;;;;;;;;;;8428883;28;20044;-86
2023/01/15 09:49:37;;;;;;;9.77;3.42;;;;;;;;;;8428213;28;20403;-86
2023/01/15 09:54:15;;;;;;;7.72;3.13;;;;;;;;;;8419310;28;20048;-87
2023/01/15 09:58:22;;;;;;;4.15;2.63;;;;;;;;;;8423670;28;20472;-86
2023/01/15 10:02:29;;;;;;;3.65;2.40;;;;;;;;;;8417857;28;20097;-86
2023/01/15 10:06:42;;;;;;;6.45;3.30;;;;;;;;;;8418411;28;20044;-86
2023/01/15 10:10:49;;;;;;;7.28;3.97;;;;;;;;;;8413607;28;20048;-86
2023/01/15 10:15:01;;;;;;;10.20;4.57;;;;;;;;;;8419816;28;20044;-86
2023/01/15 10:19:04;;;;;;;8.40;3.70;;;;;;;;;;8426430;28;20044;-86
2023/01/15 10:23:33;;;;;;;5.90;3.50;;;;;;;;;;8409505;28;20042;-86
2023/01/15 10:27:43;;;;;;;7.32;2.95;;;;;;;;;;8415712;28;20048;-85
2023/01/15 10:31:51;;;;;;;8.05;4.50;;;;;;;;;;8419015;28;20055;-86
2023/01/15 10:35:58;;;;;;;10.35;3.53;;;;;;;;;;8419485;28;20044;-86
2023/01/15 10:40:41;;;;;;;8.07;3.28;;;;;;;;;;8408143;28;20478;-85
2023/01/15 10:44:55;;;;;;;6.20;3.15;;;;;;;;;;8299646;28;20040;-86
2023/01/15 10:49:03;;;;;;;8.27;3.97;;;;;;;;;;8421245;28;20068;-84
2023/01/15 10:53:13;;;;;;;7.93;3.40;;;;;;;;;;8400630;28;20139;-85
2023/01/15 10:57:26;;;;;;;6.78;3.00;;;;;;;;;;8396428;28;20145;-88
2023/01/15 11:01:31;;;;;;;3.05;1.90;;;;;;;;;;8417012;28;20074;-85
2023/01/15 11:05:35;;;;;;;5.93;3.25;;;;;;;;;;8425460;28;20048;-85
2023/01/15 11:09:41;;;;;;;7.20;3.80;;;;;;;;;;8426218;28;20090;-85
2023/01/15 11:22:45;;;;;;;6.13;3.38;;;;;;;;;;8415552;28;20063;-85
2023/01/15 11:26:51;;;;;;;7.05;3.38;;;;;;;;;;8425003;28;20044;-85
2023/01/15 11:30:58;;;;;;;8.50;4.43;;;;;;;;;;8418071;28;20070;-85
2023/01/15 11:35:04;;;;;;;7.53;3.72;;;;;;;;;;8398911;28;20043;-85
2023/01/15 11:39:25;;;;;;;9.35;3.90;;;;;;;;;;8425193;28;20492;-86
2023/01/15 11:52:17;;;;;;;7.65;4.03;;;;;;;;;;8404693;28;20056;-85
2023/01/15 11:56:23;;;;;;;8.93;4.80;;;;;;;;;;8418065;28;20514;-85
2023/01/15 12:00:28;;;;;;;6.18;3.40;;;;;;;;;;8413286;28;20043;-85
2023/01/15 12:04:37;;;;;;;9.70;4.30;;;;;;;;;;8423516;28;20036;-85
2023/01/15 12:08:52;;;;;;;5.60;2.80;;;;;;;;;;8410960;28;20421;-85
2023/01/15 12:13:05;;;;;;;7.75;4.22;;;;;;;;;;8422721;28;20048;-85
2023/01/15 12:17:22;;;;;;;7.43;3.85;;;;;;;;;;8419204;28;20044;-85
2023/01/15 12:21:54;;;;;;;7.43;4.47;;;;;;;;;;8423608;28;20043;-86
2023/01/15 12:26:01;;;;;;;;;;;;;;;;;;8410976;28;20044;-85
2023/01/15 12:30:14;;;;;;;11.45;4.57;;;;;;;;;;8413819;28;19963;-85
2023/01/15 12:34:23;;;;;;;10.90;5.95;;;;;;;;;;8423277;28;20059;-85
2023/01/15 12:38:41;;;;;;;7.43;3.50;;;;;;;;;;8422152;28;20415;-86
2023/01/15 12:47:15;;;;;;;8.07;3.13;;;;;;;;;;8410167;28;20047;-85
2023/01/15 12:51:25;;;;;;;8.73;4.13;;;;;;;;;;8415063;28;20048;-86
2023/01/15 12:55:30;;;;;;;8.02;4.43;;;;;;;;;;8423524;28;20154;-86
2023/01/15 12:59:41;;;;;;;7.13;3.30;;;;;;;;;;8420268;28;20048;-85
2023/01/15 13:03:53;;;;;;;8.53;4.00;;;;;;;;;;8426450;28;20068;-85
2023/01/15 13:08:02;;;;;;;9.77;4.13;;;;;;;;;;8407981;28;20044;-85
2023/01/15 13:12:12;;;;;;;8.93;4.18;;;;;;;;;;8410456;28;20055;-86
2023/01/15 13:16:22;;;;;;;8.02;3.55;;;;;;;;;;8416688;28;20051;-85
2023/01/15 13:20:36;;;;;;;13.30;5.93;;;;;;;;;;8428274;28;20056;-85
2023/01/15 13:25:02;;;;;;;8.80;3.97;;;;;;;;;;8422457;28;20139;-85
2023/01/15 13:29:16;;;;;;;21.60;10.50;;;;;;;;;;8428302;28;20399;-85
2023/01/15 13:33:27;;;;;;;9.65;4.53;;;;;;;;;;8418556;28;20407;-85
2023/01/15 13:37:35;;;;;;;8.93;4.05;;;;;;;;;;8423848;28;20404;-85
2023/01/15 13:45:58;;;;;;;5.05;2.53;;;;;;;;;;8390336;28;20064;-86
2023/01/15 13:50:06;;;;;;;8.95;3.83;;;;;;;;;;8400434;28;20453;-85
2023/01/15 13:54:16;;;;;;;8.48;3.85;;;;;;;;;;8426127;28;20543;-86
2023/01/15 13:58:24;;;;;;;5.43;2.72;;;;;;;;;;8425052;28;20543;-85
2023/01/15 14:02:30;;;;;;;6.38;3.85;;;;;;;;;;8421019;28;20048;-86
2023/01/15 14:06:40;;;;;;;5.38;3.03;;;;;;;;;;8424727;28;20054;-85
2023/01/15 14:10:44;;;;;;;7.20;3.88;;;;;;;;;;8411070;28;20078;-85
2023/01/15 14:15:08;;;;;;;9.38;4.47;;;;;;;;;;8398967;28;20052;-85
2023/01/15 14:19:42;;;;;;;7.63;3.40;;;;;;;;;;8420593;28;20048;-85
2023/01/15 14:24:06;;;;;;;8.35;3.63;;;;;;;;;;8424094;28;20071;-85
2023/01/15 14:28:27;;;;;;;14.65;5.95;;;;;;;;;;8424556;28;20044;-85
2023/01/15 14:32:47;;;;;;;8.90;4.63;;;;;;;;;;8423910;28;20538;-85
2023/01/15 14:36:53;;;;;;;10.77;4.78;;;;;;;;;;8422592;28;20539;-86
2023/01/15 14:41:01;;;;;;;7.00;3.35;;;;;;;;;;8412084;28;20045;-85
2023/01/15 14:45:09;;;;;;;6.78;3.30;;;;;;;;;;8419191;28;20773;-86
2023/01/15 14:49:29;;;;;;;12.20;5.68;;;;;;;;;;8426776;28;20055;-86
2023/01/15 14:53:37;;;;;;;22.45;8.75;;;;;;;;;;8419301;28;20104;-86
2023/01/15 14:57:45;;;;;;;10.27;4.68;;;;;;;;;;8416717;28;20068;-86
2023/01/15 15:01:52;;;;;;;17.58;10.73;;;;;;;;;;8424396;28;20040;-86
2023/01/15 15:05:56;;;;;;;15.70;8.93;;;;;;;;;;8421468;28;20063;-85
2023/01/15 15:10:04;;;;;;;16.02;7.88;;;;;;;;;;8409845;28;20119;-85
2023/01/15 15:14:10;;;;;;;10.20;7.65;;;;;;;;;;8412494;28;20101;-86
2023/01/15 15:18:27;;;;;;;11.77;7.97;;;;;;;;;;8415386;28;20042;-85
2023/01/15 15:22:32;;;;;;;12.68;6.07;;;;;;;;;;8415991;28;20039;-85
2023/01/15 15:26:37;;;;;;;22.95;13.45;;;;;;;;;;8416819;28;20051;-85
2023/01/15 15:30:46;;;;;;;13.38;7.00;;;;;;;;;;8417002;28;20561;-85
2023/01/15 15:34:54;;;;;;;19.77;8.95;;;;;;;;;;8414906;28;20044;-86
2023/01/15 15:39:00;;;;;;;37.38;17.95;;;;;;;;;;8420862;28;20210;-84
2023/01/15 15:52:02;;;;;;;17.67;8.10;;;;;;;;;;8419521;28;20363;-86
2023/01/15 15:56:08;;;;;;;14.60;6.45;;;;;;;;;;8406073;28;20047;-86
2023/01/15 16:00:19;;;;;;;11.27;5.93;;;;;;;;;;8417383;28;20055;-86
2023/01/15 16:04:25;;;;;;;16.70;9.63;;;;;;;;;;8414232;28;20483;-86
2023/01/15 16:08:32;;;;;;;14.40;7.43;;;;;;;;;;8411669;28;20044;-85
2023/01/15 16:12:41;;;;;;;28.00;13.60;;;;;;;;;;8417851;28;20135;-85
2023/01/15 16:16:46;;;;;;;9.30;6.45;;;;;;;;;;8422773;28;20078;-85
2023/01/15 16:20:53;;;;;;;33.78;16.25;;;;;;;;;;8406992;28;20131;-84
2023/01/15 16:24:58;;;;;;;25.02;12.73;;;;;;;;;;8420968;28;20497;-85
2023/01/15 16:29:06;;;;;;;14.45;8.60;;;;;;;;;;8419525;28;20096;-85
2023/01/15 16:33:15;;;;;;;30.50;20.23;;;;;;;;;;8423864;28;20474;-85
2023/01/15 16:37:29;;;;;;;20.58;9.63;;;;;;;;;;8388766;28;20051;-85
2023/01/15 16:41:41;;;;;;;25.17;12.82;;;;;;;;;;8418063;28;20507;-86
2023/01/15 16:46:00;;;;;;;35.13;22.80;;;;;;;;;;8423071;28;20048;-85
2023/01/15 16:50:35;;;;;;;20.48;9.07;;;;;;;;;;8410594;28;20047;-84
2023/01/15 16:54:47;;;;;;;22.95;10.00;;;;;;;;;;8298501;28;20514;-84
2023/01/15 16:58:51;;;;;;;27.65;11.77;;;;;;;;;;8401876;28;20055;-85
2023/01/15 17:02:55;;;;;;;24.38;9.85;;;;;;;;;;8421947;28;20072;-85
2023/01/15 17:07:02;;;;;;;39.15;14.60;;;;;;;;;;8421403;28;20055;-86
2023/01/15 17:11:17;;;;;;;101.30;34.85;;;;;;;;;;8413393;28;20146;-85
2023/01/15 17:15:47;;;;;;;53.78;19.95;;;;;;;;;;8409965;28;20106;-84
2023/01/15 17:19:53;;;;;;;24.90;10.88;;;;;;;;;;8407490;28;20056;-84
2023/01/15 17:23:59;;;;;;;27.02;12.05;;;;;;;;;;8419243;28;20044;-86
2023/01/15 17:28:06;;;;;;;19.27;9.43;;;;;;;;;;8418150;28;20502;-87
2023/01/15 17:32:15;;;;;;;24.45;8.98;;;;;;;;;;8420897;28;20052;-87
2023/01/15 17:36:21;;;;;;;38.58;15.52;;;;;;;;;;8409542;28;20053;-87
2023/01/15 17:40:28;;;;;;;63.85;28.25;;;;;;;;;;8424388;28;20759;-86
2023/01/15 17:44:40;;;;;;;65.82;21.65;;;;;;;;;;8416186;28;20040;-87
2023/01/15 17:48:48;;;;;;;85.28;31.88;;;;;;;;;;8428356;28;20040;-86
2023/01/15 17:52:53;;;;;;;31.30;12.43;;;;;;;;;;8427402;28;20567;-86
2023/01/15 18:05:51;;;;;;;20.30;8.80;;;;;;;;;;8390499;28;20101;-86
2023/01/15 18:09:56;;;;;;;19.55;9.68;;;;;;;;;;8427616;28;20040;-86
2023/01/15 18:14:01;;;;;;;13.18;7.15;;;;;;;;;;8413333;28;20087;-87
2023/01/15 18:18:10;;;;;;;17.33;8.70;;;;;;;;;;8427468;28;20055;-85
2023/01/15 18:22:14;;;;;;;20.02;9.32;;;;;;;;;;8418382;28;20044;-86
2023/01/15 18:26:19;;;;;;;13.38;7.15;;;;;;;;;;8418469;28;20052;-86
2023/01/15 18:30:34;;;;;;;13.75;6.53;;;;;;;;;;8426316;28;20568;-87
2023/01/15 18:34:44;;;;;;;8.25;4.88;;;;;;;;;;8372739;28;20067;-85
2023/01/15 18:38:48;;;;;;;10.05;5.47;;;;;;;;;;8420537;28;20043;-86
2023/01/15 18:47:17;;;;;;;10.38;6.07;;;;;;;;;;8410205;28;20053;-87
2023/01/15 18:51:29;;;;;;;11.15;5.75;;;;;;;;;;8410700;28;20106;-87
2023/01/15 18:55:36;;;;;;;13.43;5.95;;;;;;;;;;8406685;28;20048;-87
2023/01/15 18:59:48;;;;;;;10.15;4.60;;;;;;;;;;8415073;28;20044;-86
2023/01/15 19:03:52;;;;;;;9.73;5.15;;;;;;;;;;8402857;28;20049;-86
2023/01/15 19:08:01;;;;;;;7.25;4.18;;;;;;;;;;8416605;28;20072;-86
2023/01/15 19:12:07;;;;;;;9.43;5.63;;;;;;;;;;8409161;28;20545;-86
2023/01/15 19:20:35;;;;;;;10.70;5.72;;;;;;;;;;8418986;28;20041;-87
2023/01/15 19:24:42;;;;;;;11.43;5.50;;;;;;;;;;8424987;28;20056;-86
2023/01/15 19:28:47;;;;;;;9.15;5.30;;;;;;;;;;8413865;28;20457;-86
2023/01/15 19:33:00;;;;;;;11.32;5.07;;;;;;;;;;8424915;28;20055;-86
2023/01/15 19:37:05;;;;;;;9.57;5.38;;;;;;;;;;8425289;28;20048;-86
2023/01/15 19:54:54;;;;;;;7.95;3.97;;;;;;;;;;8417704;28;20050;-86
2023/01/15 19:58:42;;;;;;;8.38;4.22;;;;;;;;;;8423337;28;20475;-86
2023/01/15 20:02:47;;;;;;;9.50;4.65;;;;;;;;;;8424156;28;20040;-87
2023/01/15 20:06:53;;;;;;;5.85;3.72;;;;;;;;;;8410487;28;20068;-87
2023/01/15 20:10:58;;;;;;;9.98;4.30;;;;;;;;;;8412343;28;20040;-86
2023/01/15 20:15:12;;;;;;;7.80;4.35;;;;;;;;;;8387928;28;20125;-87
2023/01/15 20:19:17;;;;;;;12.52;5.75;;;;;;;;;;8404784;28;20710;-86
2023/01/15 20:23:21;;;;;;;4.50;2.67;;;;;;;;;;8420211;28;20141;-86
2023/01/15 20:27:29;;;;;;;8.30;4.50;;;;;;;;;;8418823;28;20130;-86
2023/01/15 20:31:35;;;;;;;6.07;3.58;;;;;;;;;;8410634;28;20060;-86
2023/01/15 20:35:39;;;;;;;7.82;4.13;;;;;;;;;;8418579;28;20132;-87
2023/01/15 20:39:46;;;;;;;6.70;3.92;;;;;;;;;;8420912;28;20457;-86
2023/01/15 20:52:33;;;;;;;7.93;4.18;;;;;;;;;;8418826;28;20059;-87
2023/01/15 20:56:38;;;;;;;8.25;4.50;;;;;;;;;;8422552;28;20056;-87
2023/01/15 21:00:42;;;;;;;9.13;4.88;;;;;;;;;;8421223;28;20048;-87
2023/01/15 21:04:48;;;;;;;9.48;4.75;;;;;;;;;;8418038;28;20048;-87
2023/01/15 21:08:53;;;;;;;9.82;4.70;;;;;;;;;;8416587;28;20161;-86
2023/01/15 21:12:57;;;;;;;8.05;4.65;;;;;;;;;;8409737;28;20127;-86
2023/01/15 21:17:01;;;;;;;7.30;4.03;;;;;;;;;;8425001;28;20044;-86
2023/01/15 21:21:10;;;;;;;7.45;4.05;;;;;;;;;;8429201;28;20518;-86
2023/01/15 21:25:14;;;;;;;5.82;3.33;;;;;;;;;;8429132;28;20044;-86
2023/01/15 21:29:18;;;;;;;5.00;2.83;;;;;;;;;;8429001;28;20127;-86
2023/01/15 21:33:22;;;;;;;5.18;3.13;;;;;;;;;;8415061;28;20044;-86
2023/01/15 21:37:26;;;;;;;5.85;3.28;;;;;;;;;;8422292;28;20458;-86
2023/01/15 21:45:47;;;;;;;12.38;5.85;;;;;;;;;;8403529;28;20054;-86
2023/01/15 21:49:49;;;;;;;11.93;6.88;;;;;;;;;;8428375;28;20529;-86
2023/01/15 21:53:54;;;;;;;10.10;5.35;;;;;;;;;;8428148;28;20047;-86
2023/01/15 21:57:59;;;;;;;7.70;4.13;;;;;;;;;;8424218;28;20052;-86
2023/01/15 22:02:03;;;;;;;12.02;6.35;;;;;;;;;;8428002;28;20052;-86
2023/01/15 22:06:07;;;;;;;21.52;10.55;;;;;;;;;;8425151;28;20045;-86
2023/01/15 22:10:11;;;;;;;8.25;4.38;;;;;;;;;;8421839;28;20052;-86
2023/01/15 22:14:16;;;;;;;11.73;5.20;;;;;;;;;;8415425;28;20041;-87
2023/01/15 22:18:19;;;;;;;8.70;5.50;;;;;;;;;;8403868;28;20074;-86
2023/01/15 22:22:29;;;;;;;7.03;4.15;;;;;;;;;;8429584;28;20044;-87
2023/01/15 22:26:34;;;;;;;10.57;5.10;;;;;;;;;;8422393;28;20044;-86
2023/01/15 22:30:38;;;;;;;10.88;5.85;;;;;;;;;;8410186;28;20169;-86
2023/01/15 22:34:42;;;;;;;8.48;5.10;;;;;;;;;;8398328;28;20123;-86
2023/01/15 22:38:45;;;;;;;9.57;5.22;;;;;;;;;;8413163;28;20548;-86
2023/01/15 22:42:50;;;;;;;8.10;4.70;;;;;;;;;;8417882;28;20047;-87
2023/01/15 22:46:53;;;;;;;11.15;4.63;;;;;;;;;;8403444;28;20468;-86
2023/01/15 22:50:55;;;;;;;10.30;5.55;;;;;;;;;;8411755;28;20044;-86
2023/01/15 22:54:58;;;;;;;8.55;5.18;;;;;;;;;;8398765;28;20139;-86
2023/01/15 22:59:03;;;;;;;9.45;5.25;;;;;;;;;;8410432;28;20071;-86
2023/01/15 23:03:06;;;;;;;8.52;5.05;;;;;;;;;;8398357;28;20127;-86
2023/01/15 23:07:10;;;;;;;8.80;5.13;;;;;;;;;;8397759;28;20484;-86
2023/01/15 23:11:14;;;;;;;9.10;5.35;;;;;;;;;;8397996;28;20044;-86
2023/01/15 23:15:19;;;;;;;8.23;4.88;;;;;;;;;;8397411;28;20135;-86
2023/01/15 23:19:23;;;;;;;11.65;6.40;;;;;;;;;;8405190;28;20479;-86
2023/01/15 23:23:27;;;;;;;8.60;4.70;;;;;;;;;;8417078;28;20044;-86
2023/01/15 23:27:29;;;;;;;12.45;5.75;;;;;;;;;;8430519;28;20081;-86
2023/01/15 23:31:34;;;;;;;10.88;6.07;;;;;;;;;;8416236;28;20139;-86
2023/01/15 23:35:37;;;;;;;11.75;5.38;;;;;;;;;;8404736;28;20032;-86
2023/01/15 23:39:40;;;;;;;10.02;5.50;;;;;;;;;;8414959;28;20059;-86
2023/01/15 23:48:05;;;;;;;10.52;5.22;;;;;;;;;;8416346;28;20048;-86
2023/01/15 23:52:08;;;;;;;13.45;6.05;;;;;;;;;;8419090;28;20097;-86
2023/01/15 23:56:11;;;;;;;9.57;5.50;;;;;;;;;;8396654;28;20480;-86
